Time,TemperatureF,DewpointF,PressureIn,WindDirection,WindDirectionDegrees,WindSpeedMPH,WindSpeedGustMPH,Humidity,HourlyPrecipIn,Conditions,Clouds,dailyrainin,SolarRadiationWatts/m^2,SoftwareType,DateUTC
2013-03-22 00:00:00,47.4,44.3,29.95,WNW,297,0.0,0.0,89,0.00,CLR,,0.00,0.0,WeatherDisplay:10.37,2013-03-22 04:00:00,
2013-03-22 00:05:00,47.4,44.6,29.94,WNW,297,2.3,2.3,90,0.00,CLR,,0.00,0.0,WeatherDisplay:10.37,2013-03-22 04:05:00,
2013-03-22 00:44:00,49.1,44.8,29.93,WNW,297,0.0,0.0,85,0.00,CLR,,0.00,0.0,WeatherDisplay:10.37,2013-03-22 04:44:00,
2013-03-22 00:55:00,47.6,43.9,29.93,WNW,297,0.0,0.0,87,0.00,CLR,,0.00,0.0,WeatherDisplay:10.37,2013-03-22 04:55:00,
2013-03-22 01:00:00,47.2,43.8,29.92,WNW,297,1.1,1.1,88,0.00,CLR,,0.00,0.0,WeatherDisplay:10.37,2013-03-22 05:00:00,
2013-03-22 01:05:00,47.1,44.0,29.93,WNW,297,0.0,0.0,89,0.00,CLR,,0.00,0.0,WeatherDisplay:10.37,2013-03-22 05:05:00,
2013-03-22 01:13:00,46.9,44.1,29.93,WNW,297,0.0,0.0,90,0.00,CLR,,0.00,0.0,WeatherDisplay:10.37,2013-03-22 05:13:00,
2013-03-22 01:28:00,46.5,44.0,29.92,SE,139,0.0,0.0,91,0.00,CLR,,0.00,0.0,WeatherDisplay:10.37,2013-03-22 05:28:00,
2013-03-22 01:56:00,46.8,44.6,29.92,SE,139,0.0,0.0,92,0.00,CLR,,0.00,0.0,WeatherDisplay:10.37,2013-03-22 05:56:00,
2013-03-22 02:00:00,46.9,44.7,29.92,SE,139,0.0,0.0,92,0.00,CLR,,0.00,0.0,WeatherDisplay:10.37,2013-03-22 06:00:00,
2013-03-22 02:01:00,46.7,44.5,29.92,SE,139,1.1,1.1,92,0.00,CLR,,0.00,0.0,WeatherDisplay:10.37,2013-03-22 06:01:00,
2013-03-22 02:06:00,46.9,44.7,29.92,SE,139,0.0,0.0,92,0.00,CLR,,0.00,0.0,WeatherDisplay:10.37,2013-03-22 06:06:00,
2013-03-22 02:28:00,47.3,45.4,29.91,SE,139,1.1,1.1,93,0.00,CLR,,0.00,0.0,WeatherDisplay:10.37,2013-03-22 06:28:00,
2013-03-22 02:55:00,47.6,45.7,29.92,SE,139,2.3,2.3,93,0.00,CLR,,0.00,0.0,WeatherDisplay:10.37,2013-03-22 06:55:00,
2013-03-22 03:00:00,47.4,45.5,29.92,SE,139,0.0,0.0,93,0.00,CLR,,0.00,0.0,WeatherDisplay:10.37,2013-03-22 07:00:00,
2013-03-22 03:05:00,47.3,45.4,29.92,SE,139,0.0,0.0,93,0.00,CLR,,0.00,0.0,WeatherDisplay:10.37,2013-03-22 07:05:00,
2013-03-22 03:35:00,47.4,45.2,29.91,ENE,71,1.1,1.1,92,0.00,CLR,,0.00,0.0,WeatherDisplay:10.37,2013-03-22 07:35:00,
2013-03-22 03:45:00,47.1,44.9,29.92,ENE,71,0.0,0.0,92,0.00,CLR,,0.00,0.0,WeatherDisplay:10.37,2013-03-22 07:45:00,
2013-03-22 03:56:00,46.9,44.7,29.92,ENE,71,2.3,2.3,92,0.00,CLR,,0.00,0.0,WeatherDisplay:10.37,2013-03-22 07:56:00,
2013-03-22 04:00:00,47.2,45.0,29.92,ENE,71,2.3,2.3,92,0.00,CLR,,0.00,0.0,WeatherDisplay:10.37,2013-03-22 08:00:00,
2013-03-22 04:01:00,46.9,44.7,29.91,ENE,71,2.3,2.3,92,0.00,CLR,,0.00,0.0,WeatherDisplay:10.37,2013-03-22 08:01:00,
2013-03-22 04:06:00,47.0,44.8,29.91,ENE,71,2.3,2.3,92,0.00,CLR,,0.00,0.0,WeatherDisplay:10.37,2013-03-22 08:06:00,
2013-03-22 04:19:00,47.4,45.2,29.91,ENE,71,1.1,1.1,92,0.00,CLR,,0.00,0.0,WeatherDisplay:10.37,2013-03-22 08:19:00,
2013-03-22 04:56:00,47.4,45.2,29.92,ESE,111,2.3,2.3,92,0.00,CLR,,0.00,0.0,WeatherDisplay:10.37,2013-03-22 08:56:00,
2013-03-22 05:00:00,47.6,45.4,29.92,ESE,111,0.0,0.0,92,0.00,CLR,,0.00,0.0,WeatherDisplay:10.37,2013-03-22 09:00:00,
2013-03-22 05:01:00,47.4,45.2,29.92,ESE,111,2.3,0.0,92,0.00,CLR,,0.00,0.0,WeatherDisplay:10.37,2013-03-22 09:01:00,
2013-03-22 05:06:00,47.5,45.3,29.92,ESE,111,0.0,0.0,92,0.00,CLR,,0.00,0.0,WeatherDisplay:10.37,2013-03-22 09:06:00,
2013-03-22 05:34:00,47.4,44.9,29.92,ESE,111,1.1,1.1,91,0.00,CLR,,0.00,0.0,WeatherDisplay:10.37,2013-03-22 09:34:00,
2013-03-22 05:40:00,47.3,44.8,29.92,ESE,111,1.1,1.1,91,0.00,CLR,,0.00,0.0,WeatherDisplay:10.37,2013-03-22 09:40:00,
2013-03-22 05:51:00,47.5,45.0,29.93,ESE,111,0.0,0.0,91,0.00,CLR,,0.00,0.0,WeatherDisplay:10.37,2013-03-22 09:51:00,
2013-03-22 05:56:00,47.5,45.0,29.93,ESE,111,0.0,0.0,91,0.00,CLR,,0.00,0.0,WeatherDisplay:10.37,2013-03-22 09:56:00,
2013-03-22 06:00:00,47.7,45.2,29.92,ESE,111,2.0,2.0,91,0.00,CLR,,0.00,0.0,WeatherDisplay:10.37,2013-03-22 10:00:00,
2013-03-22 06:01:00,47.6,45.1,29.93,ESE,111,0.0,0.0,91,0.00,CLR,,0.00,0.0,WeatherDisplay:10.37,2013-03-22 10:01:00,
2013-03-22 06:06:00,47.7,45.2,29.93,ESE,111,2.3,2.3,91,0.00,CLR,,0.00,0.0,WeatherDisplay:10.37,2013-03-22 10:06:00,
2013-03-22 06:24:00,48.4,45.6,29.93,East,101,2.3,2.3,90,0.00,CLR,,0.00,0.0,WeatherDisplay:10.37,2013-03-22 10:24:00,
2013-03-22 06:56:00,51.1,45.8,29.95,NE,53,4.6,4.6,82,0.00,CLR,,0.00,0.0,WeatherDisplay:10.37,2013-03-22 10:56:00,
2013-03-22 07:00:00,51.2,45.6,29.96,ESE,117,4.6,4.6,81,0.00,CLR,,0.00,0.0,WeatherDisplay:10.37,2013-03-22 11:00:00,
2013-03-22 07:01:00,51.2,45.6,29.95,ENE,71,3.4,3.4,81,0.00,CLR,,0.00,0.0,WeatherDisplay:10.37,2013-03-22 11:01:00,
2013-03-22 07:06:00,51.2,45.6,29.95,ENE,61,3.4,3.4,81,0.00,CLR,,0.00,0.0,WeatherDisplay:10.37,2013-03-22 11:06:00,
2013-03-22 07:24:00,50.4,45.1,29.96,ENE,60,3.4,3.4,82,0.00,CLR,,0.00,0.0,WeatherDisplay:10.37,2013-03-22 11:24:00,
2013-03-22 07:34:00,50.0,45.0,29.96,NE,46,3.4,3.4,83,0.00,CLR,,0.00,0.0,WeatherDisplay:10.37,2013-03-22 11:34:00,
2013-03-22 07:54:00,49.8,45.2,29.97,NE,50,6.0,6.0,84,0.00,CLR,,0.00,16.0,WeatherDisplay:10.37,2013-03-22 11:54:00,
2013-03-22 07:59:00,49.8,45.2,29.97,ENE,58,7.0,7.0,84,0.00,CLR,,0.00,19.0,WeatherDisplay:10.37,2013-03-22 11:59:00,
2013-03-22 08:00:00,50.0,45.4,29.97,East,85,5.0,5.0,84,0.00,OVC,,0.00,28.0,WeatherDisplay:10.37,2013-03-22 12:00:00,
2013-03-22 08:04:00,49.9,45.3,29.97,ENE,60,6.9,6.9,84,0.00,OVC,,0.00,25.0,WeatherDisplay:10.37,2013-03-22 12:04:00,
2013-03-22 08:09:00,50.0,45.4,29.97,ENE,67,3.4,3.4,84,0.00,OVC,,0.00,28.0,WeatherDisplay:10.37,2013-03-22 12:09:00,
2013-03-22 08:14:00,50.3,45.3,29.97,NE,38,6.9,6.9,83,0.00,OVC,,0.00,39.0,WeatherDisplay:10.37,2013-03-22 12:14:00,
2013-03-22 08:56:00,52.9,45.9,29.98,ESE,109,8.1,8.1,77,0.00,OVC,,0.00,107.0,WeatherDisplay:10.37,2013-03-22 12:56:00,
2013-03-22 09:00:00,53.8,46.1,29.98,ESE,107,3.4,3.4,75,0.00,OVC,,0.00,84.0,WeatherDisplay:10.37,2013-03-22 13:00:00,
2013-03-22 09:01:00,53.3,46.3,29.98,East,82,6.0,6.0,77,0.00,OVC,,0.00,95.0,WeatherDisplay:10.37,2013-03-22 13:01:00,
2013-03-22 09:06:00,53.6,46.2,29.98,ENE,63,7.0,7.0,76,0.00,OVC,,0.00,90.0,WeatherDisplay:10.37,2013-03-22 13:06:00,
2013-03-22 09:25:00,55.5,46.2,29.98,NE,37,4.6,4.6,71,0.00,OVC,,0.00,200.0,WeatherDisplay:10.37,2013-03-22 13:25:00,
2013-03-22 09:35:00,56.3,45.9,29.99,NE,40,8.1,8.1,68,0.00,OVC,,0.00,207.0,WeatherDisplay:10.37,2013-03-22 13:35:00,
2013-03-22 09:46:00,56.8,45.2,29.99,ENE,70,5.0,5.0,65,0.00,OVC,,0.00,253.0,WeatherDisplay:10.37,2013-03-22 13:46:00,
2013-03-22 09:53:00,57.5,44.6,29.99,East,85,9.2,9.2,62,0.00,OVC,,0.00,239.0,WeatherDisplay:10.37,2013-03-22 13:53:00,
2013-03-22 09:58:00,58.3,45.3,29.99,ENE,65,7.0,7.0,62,0.00,OVC,,0.00,213.0,WeatherDisplay:10.37,2013-03-22 13:58:00,
2013-03-22 10:00:00,59.3,44.1,29.99,NE,51,10.3,10.3,57,0.00,OVC,,0.00,216.0,WeatherDisplay:10.37,2013-03-22 14:00:00,
2013-03-22 10:03:00,58.6,44.8,30.00,ENE,69,4.6,4.6,60,0.00,OVC,,0.00,262.0,WeatherDisplay:10.37,2013-03-22 14:03:00,
2013-03-22 10:08:00,59.2,44.4,29.99,ESE,104,3.4,4.0,58,0.00,OVC,,0.00,216.0,WeatherDisplay:10.37,2013-03-22 14:08:00,
2013-03-22 10:14:00,59.4,44.2,29.99,ENE,71,6.9,6.9,57,0.00,OVC,,0.00,290.0,WeatherDisplay:10.37,2013-03-22 14:14:00,
2013-03-22 10:24:00,60.0,43.8,29.99,East,90,9.2,9.2,55,0.00,OVC,,0.00,207.0,WeatherDisplay:10.37,2013-03-22 14:24:00,
2013-03-22 10:47:00,61.8,43.5,29.98,ESE,105,10.0,10.0,51,0.00,SCT,,0.00,645.0,WeatherDisplay:10.37,2013-03-22 14:47:00,
2013-03-22 10:56:00,63.6,43.5,29.98,ENE,74,8.1,8.1,48,0.00,SCT,,0.00,687.0,WeatherDisplay:10.37,2013-03-22 14:56:00,
2013-03-22 11:00:00,63.5,42.3,29.99,SE,132,4.6,4.6,46,0.00,OVC,,0.00,306.0,WeatherDisplay:10.37,2013-03-22 15:00:00,
2013-03-22 11:01:00,64.1,42.3,29.98,ESE,109,10.3,10.3,45,0.00,SCT,,0.00,236.0,WeatherDisplay:10.37,2013-03-22 15:01:00,
2013-03-22 11:06:00,63.6,42.4,29.98,SE,128,8.1,8.1,46,0.00,OVC,,0.00,338.0,WeatherDisplay:10.37,2013-03-22 15:06:00,
2013-03-22 11:23:00,65.0,43.7,29.99,NNE,20,4.6,4.6,46,0.00,OVC,,0.00,765.0,WeatherDisplay:10.37,2013-03-22 15:23:00,
2013-03-22 11:39:00,67.1,43.8,29.99,ESE,109,5.0,5.0,43,0.00,SCT,,0.00,763.0,WeatherDisplay:10.37,2013-03-22 15:39:00,
2013-03-22 11:56:00,68.5,43.2,29.98,SE,124,8.1,8.1,40,0.00,SCT,,0.00,786.0,WeatherDisplay:10.37,2013-03-22 15:56:00,
2013-03-22 12:00:00,69.1,43.1,29.98,ESE,108,5.8,5.8,39,0.00,SCT,,0.00,786.0,WeatherDisplay:10.37,2013-03-22 16:00:00,
2013-03-22 12:01:00,68.8,42.1,29.98,ESE,111,4.6,4.6,38,0.00,SCT,,0.00,817.0,WeatherDisplay:10.37,2013-03-22 16:01:00,
2013-03-22 12:06:00,68.6,43.3,29.98,ESE,114,8.1,8.1,40,0.00,OVC,,0.00,295.0,WeatherDisplay:10.37,2013-03-22 16:06:00,
2013-03-22 12:24:00,69.7,44.3,29.98,SE,146,5.8,7.2,40,0.00,BKN,,0.00,580.0,WeatherDisplay:10.37,2013-03-22 16:24:00,
2013-03-22 12:36:00,71.1,46.2,29.98,SE,125,6.0,6.0,41,0.00,BKN,,0.00,527.0,WeatherDisplay:10.37,2013-03-22 16:36:00,
2013-03-22 12:56:00,71.4,51.2,29.96,SE,135,11.5,11.5,49,0.00,BKN,,0.00,587.0,WeatherDisplay:10.37,2013-03-22 16:56:00,
2013-03-22 13:00:00,71.6,51.4,29.95,SE,140,11.5,11.5,49,0.00,BKN,,0.00,680.0,WeatherDisplay:10.37,2013-03-22 17:00:00,
2013-03-22 13:01:00,71.2,51.1,29.96,SE,131,11.0,11.0,49,0.00,BKN,,0.00,508.0,WeatherDisplay:10.37,2013-03-22 17:01:00,
2013-03-22 13:06:00,71.1,52.0,29.96,SSE,154,11.5,11.5,51,0.00,BKN,,0.00,626.0,WeatherDisplay:10.37,2013-03-22 17:06:00,
2013-03-22 13:29:00,72.0,51.2,29.95,SSE,163,3.4,6.7,48,0.00,BKN,,0.00,605.0,WeatherDisplay:10.37,2013-03-22 17:29:00,
2013-03-22 13:49:00,71.9,50.0,29.93,SSE,147,12.0,12.0,46,0.00,OVC,,0.00,385.0,WeatherDisplay:10.37,2013-03-22 17:49:00,
2013-03-22 13:56:00,72.0,51.2,29.93,ESE,119,14.9,14.9,48,0.00,BKN,,0.00,584.0,WeatherDisplay:10.37,2013-03-22 17:56:00,
2013-03-22 14:00:00,73.4,52.5,29.92,SSE,147,11.5,11.5,48,0.00,SCT,,0.00,898.0,WeatherDisplay:10.37,2013-03-22 18:00:00,
2013-03-22 14:01:00,72.8,51.4,29.93,SE,131,17.3,17.3,47,0.00,SCT,,0.00,905.0,WeatherDisplay:10.37,2013-03-22 18:01:00,
2013-03-22 14:06:00,72.5,51.7,29.92,ESE,121,11.5,11.5,48,0.00,SCT,,0.00,889.0,WeatherDisplay:10.37,2013-03-22 18:06:00,
2013-03-22 14:14:00,74.4,52.9,29.92,SSE,149,14.9,14.9,47,0.00,FEW,,0.00,919.0,WeatherDisplay:10.37,2013-03-22 18:14:00,
2013-03-22 14:31:00,75.2,53.6,29.92,SE,136,11.5,11.5,47,0.00,CLR,,0.00,1085.0,WeatherDisplay:10.37,2013-03-22 18:31:00,
2013-03-22 14:56:00,74.2,54.4,29.91,ESE,123,6.9,6.9,50,0.00,OVC,,0.00,237.0,WeatherDisplay:10.37,2013-03-22 18:56:00,
2013-03-22 15:00:00,74.3,55.0,29.90,ESE,121,6.9,6.9,51,0.00,OVC,,0.00,1123.0,WeatherDisplay:10.37,2013-03-22 19:00:00,
2013-03-22 15:01:00,74.2,54.4,29.91,ESE,115,9.2,9.2,50,0.00,OVC,,0.00,274.0,WeatherDisplay:10.37,2013-03-22 19:01:00,
2013-03-22 15:06:00,73.7,54.4,29.91,ESE,107,6.9,6.9,51,0.00,OVC,,0.00,309.0,WeatherDisplay:10.37,2013-03-22 19:06:00,
2013-03-22 15:19:00,74.9,55.0,29.90,SE,132,9.2,9.2,50,0.00,BKN,,0.00,461.0,WeatherDisplay:10.37,2013-03-22 19:19:00,
2013-03-22 15:27:00,74.3,55.5,29.89,South,188,3.4,3.4,52,0.00,OVC,,0.00,355.0,WeatherDisplay:10.37,2013-03-22 19:27:00,
2013-03-22 15:45:00,75.4,57.6,29.89,SE,129,2.3,2.3,54,0.00,OVC,,0.00,243.0,WeatherDisplay:10.37,2013-03-22 19:45:00,
2013-03-22 15:56:00,73.3,57.1,29.89,ESE,115,5.8,5.8,57,0.00,OVC,,0.00,120.0,WeatherDisplay:10.37,2013-03-22 19:56:00,
2013-03-22 16:00:00,72.8,57.6,29.89,ESE,122,7.0,7.0,59,0.00,OVC,,0.00,121.0,WeatherDisplay:10.37,2013-03-22 20:00:00,
2013-03-22 16:01:00,73.0,57.3,29.89,SE,137,6.0,6.0,58,0.00,OVC,,0.00,113.0,WeatherDisplay:10.37,2013-03-22 20:01:00,
2013-03-22 16:06:00,73.1,57.9,29.89,SE,126,5.8,5.8,59,0.00,OVC,,0.00,118.0,WeatherDisplay:10.37,2013-03-22 20:06:00,
2013-03-22 16:39:00,72.3,58.1,29.89,SE,146,3.4,3.4,61,0.00,OVC,,0.00,107.0,WeatherDisplay:10.37,2013-03-22 20:39:00,
2013-03-22 16:56:00,73.1,59.8,29.88,SE,146,2.3,2.3,63,0.00,BKN,,0.00,236.0,WeatherDisplay:10.37,2013-03-22 20:56:00,
2013-03-22 17:00:00,73.5,61.9,29.89,SE,146,2.3,2.3,67,0.00,OVC,,0.00,90.0,WeatherDisplay:10.37,2013-03-22 21:00:00,
2013-03-22 17:01:00,73.3,60.4,29.89,SE,146,2.3,2.3,64,0.00,OVC,,0.00,151.0,WeatherDisplay:10.37,2013-03-22 21:01:00,
2013-03-22 17:06:00,73.4,61.3,29.89,SE,146,3.4,3.4,66,0.00,OVC,,0.00,134.0,WeatherDisplay:10.37,2013-03-22 21:06:00,
2013-03-22 17:34:00,72.8,62.4,29.89,South,188,3.4,3.4,70,0.00,OVC,,0.00,51.0,WeatherDisplay:10.37,2013-03-22 21:34:00,
2013-03-22 17:56:00,72.8,63.2,29.89,SSE,153,5.0,5.0,72,0.00,OVC,,0.00,39.0,WeatherDisplay:10.37,2013-03-22 21:56:00,
2013-03-22 18:00:00,72.7,63.5,29.90,SSE,155,1.0,1.0,73,0.00,BKN,,0.00,72.0,WeatherDisplay:10.37,2013-03-22 22:00:00,
2013-03-22 18:01:00,72.6,63.4,29.89,SSE,155,3.4,3.4,73,0.00,OVC,,0.00,53.0,WeatherDisplay:10.37,2013-03-22 22:01:00,
2013-03-22 18:06:00,72.5,63.4,29.89,SSE,155,3.4,3.4,73,0.00,BKN,,0.00,109.0,WeatherDisplay:10.37,2013-03-22 22:06:00,
2013-03-22 18:16:00,72.7,63.5,29.90,SSE,155,3.4,3.4,73,0.00,OVC,,0.00,35.0,WeatherDisplay:10.37,2013-03-22 22:16:00,
2013-03-22 18:21:00,72.6,63.4,29.90,SSE,155,3.4,3.4,73,0.00,OVC,,0.00,35.0,WeatherDisplay:10.37,2013-03-22 22:21:00,
2013-03-22 18:54:00,72.6,63.8,29.89,SSE,155,3.4,3.4,74,0.00,FEW,,0.00,42.0,WeatherDisplay:10.37,2013-03-22 22:54:00,
2013-03-22 18:59:00,72.5,64.1,29.90,SSE,155,0.0,0.0,75,0.00,OVC,,0.00,12.0,WeatherDisplay:10.37,2013-03-22 22:59:00,
2013-03-22 19:00:00,72.4,64.4,29.90,SSE,155,3.4,3.4,76,0.00,FEW,,0.00,5.0,WeatherDisplay:10.37,2013-03-22 23:00:00,
2013-03-22 19:04:00,72.4,64.0,29.90,SSE,155,1.1,1.1,75,0.00,OVC,,0.00,7.0,WeatherDisplay:10.37,2013-03-22 23:04:00,
2013-03-22 19:09:00,72.4,64.4,29.90,SSE,155,3.4,3.4,76,0.00,FEW,,0.00,5.0,WeatherDisplay:10.37,2013-03-22 23:09:00,
2013-03-22 19:56:00,70.2,65.8,29.89,SSE,159,1.1,1.1,86,0.00,OVC,,0.00,0.0,WeatherDisplay:10.37,2013-03-22 23:56:00,
2013-03-22 20:00:00,70.2,65.8,29.90,SSE,159,2.3,2.3,86,0.00,OVC,,0.00,0.0,WeatherDisplay:10.37,2013-03-23 00:00:00,
2013-03-22 20:01:00,70.0,65.6,29.90,SSE,159,0.0,0.1,86,0.00,OVC,,0.00,0.0,WeatherDisplay:10.37,2013-03-23 00:01:00,
2013-03-22 20:06:00,70.1,65.7,29.90,SSE,159,1.1,1.1,86,0.00,OVC,,0.00,0.0,WeatherDisplay:10.37,2013-03-23 00:06:00,
2013-03-22 20:35:00,68.5,65.8,29.93,NNW,329,3.4,3.4,91,0.79,RA,,0.82,0.0,WeatherDisplay:10.37,2013-03-23 00:35:00,
2013-03-22 20:56:00,67.9,66.4,29.93,NNW,332,3.4,3.8,95,0.86,OVC,,0.86,0.0,WeatherDisplay:10.37,2013-03-23 00:56:00,
2013-03-22 21:00:00,67.8,66.6,29.93,NNW,332,1.1,0.0,96,0.87,RA,,0.87,0.0,WeatherDisplay:10.37,2013-03-23 01:00:00,
2013-03-22 21:01:00,67.9,66.4,29.93,NNW,332,2.3,2.3,95,0.87,RA,,0.87,0.0,WeatherDisplay:10.37,2013-03-23 01:01:00,
2013-03-22 21:06:00,67.8,66.3,29.93,NNW,332,2.3,2.3,95,0.87,RA,,0.87,0.0,WeatherDisplay:10.37,2013-03-23 01:06:00,
2013-03-22 21:46:00,66.3,65.1,29.94,NNE,24,1.1,1.1,96,0.35,RA,,1.22,0.0,WeatherDisplay:10.37,2013-03-23 01:46:00,
2013-03-22 21:56:00,65.9,64.7,29.94,NNE,24,3.4,3.4,96,0.41,RA,,1.27,0.0,WeatherDisplay:10.37,2013-03-23 01:56:00,
2013-03-22 21:59:00,65.8,64.9,29.94,NNE,24,3.4,3.4,97,0.42,RA,,1.28,0.0,WeatherDisplay:10.37,2013-03-23 01:59:00,
2013-03-22 22:00:00,65.6,64.4,29.95,NNE,24,3.4,3.4,96,0.43,RA,,1.30,0.0,WeatherDisplay:10.37,2013-03-23 02:00:00,
2013-03-22 22:04:00,65.8,64.9,29.95,NNE,24,3.4,3.4,97,0.42,RA,,1.29,0.0,WeatherDisplay:10.37,2013-03-23 02:04:00,
2013-03-22 22:09:00,65.6,64.4,29.95,NNE,24,5.0,5.0,96,0.43,RA,,1.30,0.0,WeatherDisplay:10.37,2013-03-23 02:09:00,
2013-03-22 22:56:00,65.1,64.2,29.97,East,82,3.4,3.4,97,0.03,CLR,,1.30,0.0,WeatherDisplay:10.37,2013-03-23 02:56:00,
2013-03-22 23:00:00,64.7,63.8,29.97,ESE,109,3.4,3.4,97,0.00,CLR,,1.30,0.0,WeatherDisplay:10.37,2013-03-23 03:00:00,
2013-03-22 23:01:00,64.8,63.9,29.97,ESE,110,1.1,1.1,97,0.02,CLR,,1.30,0.0,WeatherDisplay:10.37,2013-03-23 03:01:00,
2013-03-22 23:06:00,64.7,63.8,29.97,ESE,109,3.4,3.4,97,0.01,CLR,,1.30,0.0,WeatherDisplay:10.37,2013-03-23 03:06:00,
2013-03-22 23:18:00,64.3,63.4,29.97,ESE,103,3.4,3.4,97,0.00,CLR,,1.30,0.0,WeatherDisplay:10.37,2013-03-23 03:18:00,
2013-03-22 23:29:00,64.3,63.4,29.96,ESE,104,3.4,3.4,97,0.00,CLR,,1.30,0.0,WeatherDisplay:10.37,2013-03-23 03:29:00,
2013-03-22 23:36:00,64.3,63.4,29.96,ESE,104,1.1,1.1,97,0.00,CLR,,1.30,0.0,WeatherDisplay:10.37,2013-03-23 03:36:00,
2013-03-22 23:44:00,64.4,63.5,29.96,ESE,104,3.4,3.4,97,0.00,CLR,,1.30,0.0,WeatherDisplay:10.37,2013-03-23 03:44:00,
2013-03-22 23:53:00,64.5,63.6,29.96,ESE,104,2.3,2.3,97,0.00,CLR,,1.30,0.0,WeatherDisplay:10.37,2013-03-23 03:53:00,
2013-03-22 23:58:00,64.5,63.6,29.96,ESE,104,3.4,3.4,97,0.00,CLR,,1.30,0.0,WeatherDisplay:10.37,2013-03-23 03:58:00,